sensor_id;sensor_type;location;lat;lon;timestamp;pressure;altitude;pressure_sealevel;temperature;humidity
76084;BME280;64789;0.000;0.000;2023-08-21T00:01:43;94024.28;;;21.88;49.83
76084;BME280;64789;0.000;0.000;2023-08-21T00:04:09;94020.81;;;21.89;49.82
76084;BME280;64789;0.000;0.000;2023-08-21T00:06:34;94028.00;;;21.90;49.50
76084;BME280;64789;0.000;0.000;2023-08-21T00:09:00;94021.78;;;21.94;49.57
76084;BME280;64789;0.000;0.000;2023-08-21T00:11:26;94020.16;;;22.02;49.20
76084;BME280;64789;0.000;0.000;2023-08-21T00:13:52;94023.28;;;21.95;49.37
76084;BME280;64789;0.000;0.000;2023-08-21T00:16:17;94022.41;;;21.92;49.60
76084;BME280;64789;0.000;0.000;2023-08-21T00:18:43;94018.97;;;21.82;49.97
76084;BME280;64789;0.000;0.000;2023-08-21T00:21:09;94014.78;;;21.72;50.22
76084;BME280;64789;0.000;0.000;2023-08-21T00:23:34;94021.47;;;21.76;50.08
76084;BME280;64789;0.000;0.000;2023-08-21T00:26:00;94022.59;;;21.71;50.25
76084;BME280;64789;0.000;0.000;2023-08-21T00:28:25;94020.59;;;21.74;50.34
76084;BME280;64789;0.000;0.000;2023-08-21T00:30:51;94017.78;;;21.62;50.36
76084;BME280;64789;0.000;0.000;2023-08-21T00:33:16;94020.00;;;21.64;50.44
76084;BME280;64789;0.000;0.000;2023-08-21T00:35:42;94024.84;;;21.61;50.32
76084;BME280;64789;0.000;0.000;2023-08-21T00:38:08;94017.88;;;21.64;50.39
76084;BME280;64789;0.000;0.000;2023-08-21T00:40:34;94018.31;;;21.58;50.66
76084;BME280;64789;0.000;0.000;2023-08-21T00:42:59;94013.22;;;21.57;50.40
76084;BME280;64789;0.000;0.000;2023-08-21T00:45:26;94031.13;;;21.59;50.89
76084;BME280;64789;0.000;0.000;2023-08-21T00:47:51;94027.09;;;21.51;51.30
76084;BME280;64789;0.000;0.000;2023-08-21T00:50:17;94031.69;;;21.33;51.44
76084;BME280;64789;0.000;0.000;2023-08-21T00:52:44;94024.75;;;21.36;51.94
76084;BME280;64789;0.000;0.000;2023-08-21T00:55:12;94028.25;;;21.11;53.07
76084;BME280;64789;0.000;0.000;2023-08-21T00:57:39;94035.88;;;20.97;53.25
76084;BME280;64789;0.000;0.000;2023-08-21T01:00:05;94029.72;;;20.77;53.87
76084;BME280;64789;0.000;0.000;2023-08-21T01:02:33;94037.22;;;20.61;54.26
76084;BME280;64789;0.000;0.000;2023-08-21T01:04:58;94028.91;;;20.42;54.44
76084;BME280;64789;0.000;0.000;2023-08-21T01:07:24;94028.38;;;20.22;55.52
76084;BME280;64789;0.000;0.000;2023-08-21T01:09:51;94034.84;;;20.13;55.90
76084;BME280;64789;0.000;0.000;2023-08-21T01:15:06;94031.53;;;20.17;55.39
76084;BME280;64789;0.000;0.000;2023-08-21T01:17:36;94037.69;;;20.13;55.63
76084;BME280;64789;0.000;0.000;2023-08-21T01:20:02;94033.94;;;20.32;54.71
76084;BME280;64789;0.000;0.000;2023-08-21T01:22:36;94033.88;;;20.42;54.41
76084;BME280;64789;0.000;0.000;2023-08-21T01:25:02;94027.03;;;20.35;54.48
76084;BME280;64789;0.000;0.000;2023-08-21T01:27:27;94030.16;;;20.39;54.22
76084;BME280;64789;0.000;0.000;2023-08-21T01:29:53;94031.50;;;20.50;53.71
76084;BME280;64789;0.000;0.000;2023-08-21T01:34:45;94024.16;;;20.79;53.06
76084;BME280;64789;0.000;0.000;2023-08-21T01:37:11;94030.94;;;20.86;52.61
76084;BME280;64789;0.000;0.000;2023-08-21T01:39:37;94028.47;;;20.80;52.78
76084;BME280;64789;0.000;0.000;2023-08-21T01:42:03;94027.63;;;20.89;52.95
76084;BME280;64789;0.000;0.000;2023-08-21T01:44:29;94023.66;;;20.94;52.26
76084;BME280;64789;0.000;0.000;2023-08-21T01:46:55;94023.03;;;20.96;52.13
76084;BME280;64789;0.000;0.000;2023-08-21T01:49:20;94031.47;;;21.06;51.82
76084;BME280;64789;0.000;0.000;2023-08-21T01:51:46;94028.00;;;20.95;52.03
76084;BME280;64789;0.000;0.000;2023-08-21T01:54:12;94024.78;;;20.78;52.65
76084;BME280;64789;0.000;0.000;2023-08-21T01:56:38;94027.47;;;20.64;53.11
76084;BME280;64789;0.000;0.000;2023-08-21T01:59:04;94022.53;;;20.76;52.57
76084;BME280;64789;0.000;0.000;2023-08-21T02:01:30;94019.34;;;20.70;53.14
76084;BME280;64789;0.000;0.000;2023-08-21T02:03:55;94028.19;;;20.53;53.71
76084;BME280;64789;0.000;0.000;2023-08-21T02:06:21;94029.81;;;20.56;53.93
76084;BME280;64789;0.000;0.000;2023-08-21T02:08:46;94023.03;;;20.61;53.16
76084;BME280;64789;0.000;0.000;2023-08-21T02:11:12;94021.66;;;20.62;53.14
76084;BME280;64789;0.000;0.000;2023-08-21T02:13:37;94022.53;;;20.53;53.70
76084;BME280;64789;0.000;0.000;2023-08-21T02:16:03;94018.59;;;20.58;53.37
76084;BME280;64789;0.000;0.000;2023-08-21T02:18:29;94021.53;;;20.60;53.23
76084;BME280;64789;0.000;0.000;2023-08-21T02:20:54;94023.75;;;20.50;53.61
76084;BME280;64789;0.000;0.000;2023-08-21T02:23:20;94019.28;;;20.36;54.05
76084;BME280;64789;0.000;0.000;2023-08-21T02:25:46;94018.06;;;20.50;53.68
76084;BME280;64789;0.000;0.000;2023-08-21T02:28:12;94019.78;;;20.44;53.95
76084;BME280;64789;0.000;0.000;2023-08-21T02:30:41;94016.34;;;20.45;53.91
76084;BME280;64789;0.000;0.000;2023-08-21T02:33:06;94014.59;;;20.40;54.34
76084;BME280;64789;0.000;0.000;2023-08-21T02:35:32;94017.28;;;20.26;54.58
76084;BME280;64789;0.000;0.000;2023-08-21T02:37:57;94020.13;;;20.26;54.58
76084;BME280;64789;0.000;0.000;2023-08-21T02:40:23;94018.88;;;19.97;55.60
76084;BME280;64789;0.000;0.000;2023-08-21T02:42:49;94013.66;;;19.82;56.44
76084;BME280;64789;0.000;0.000;2023-08-21T02:45:14;94019.94;;;19.59;56.95
76084;BME280;64789;0.000;0.000;2023-08-21T02:47:40;94020.84;;;19.40;57.72
76084;BME280;64789;0.000;0.000;2023-08-21T02:50:07;94022.22;;;19.30;58.17
76084;BME280;64789;0.000;0.000;2023-08-21T02:52:33;94025.13;;;19.20;58.32
76084;BME280;64789;0.000;0.000;2023-08-21T02:54:59;94031.16;;;19.05;58.97
76084;BME280;64789;0.000;0.000;2023-08-21T02:57:25;94026.44;;;18.98;59.30
76084;BME280;64789;0.000;0.000;2023-08-21T02:59:51;94018.66;;;18.77;59.89
76084;BME280;64789;0.000;0.000;2023-08-21T03:02:17;94023.84;;;18.81;59.40
76084;BME280;64789;0.000;0.000;2023-08-21T03:04:42;94022.72;;;18.65;60.10
76084;BME280;64789;0.000;0.000;2023-08-21T03:07:08;94017.72;;;18.34;60.95
76084;BME280;64789;0.000;0.000;2023-08-21T03:09:34;94023.22;;;18.42;60.83
76084;BME280;64789;0.000;0.000;2023-08-21T03:11:59;94019.22;;;18.35;60.85
76084;BME280;64789;0.000;0.000;2023-08-21T03:14:26;94018.31;;;18.43;60.63
76084;BME280;64789;0.000;0.000;2023-08-21T03:16:52;94023.22;;;18.42;60.71
76084;BME280;64789;0.000;0.000;2023-08-21T03:19:17;94028.88;;;18.42;60.79
76084;BME280;64789;0.000;0.000;2023-08-21T03:21:43;94025.47;;;18.44;60.85
76084;BME280;64789;0.000;0.000;2023-08-21T03:24:09;94029.06;;;18.34;61.12
76084;BME280;64789;0.000;0.000;2023-08-21T03:26:35;94041.00;;;18.23;61.28
76084;BME280;64789;0.000;0.000;2023-08-21T03:29:00;94036.25;;;18.16;62.09
76084;BME280;64789;0.000;0.000;2023-08-21T03:31:26;94051.59;;;18.04;61.97
76084;BME280;64789;0.000;0.000;2023-08-21T03:33:52;94042.81;;;17.90;62.36
76084;BME280;64789;0.000;0.000;2023-08-21T03:36:19;94044.94;;;17.80;63.15
76084;BME280;64789;0.000;0.000;2023-08-21T03:38:46;94046.09;;;18.06;62.56
76084;BME280;64789;0.000;0.000;2023-08-21T03:41:11;94035.25;;;17.83;63.28
76084;BME280;64789;0.000;0.000;2023-08-21T03:43:37;94039.28;;;17.80;63.36
76084;BME280;64789;0.000;0.000;2023-08-21T03:46:03;94029.16;;;17.77;63.31
76084;BME280;64789;0.000;0.000;2023-08-21T03:48:29;94028.50;;;18.07;62.52
76084;BME280;64789;0.000;0.000;2023-08-21T03:50:54;94031.13;;;18.44;61.59
76084;BME280;64789;0.000;0.000;2023-08-21T03:53:20;94036.56;;;18.70;60.55
76084;BME280;64789;0.000;0.000;2023-08-21T03:55:45;94036.00;;;18.93;59.46
76084;BME280;64789;0.000;0.000;2023-08-21T03:58:12;94032.66;;;19.06;59.00
76084;BME280;64789;0.000;0.000;2023-08-21T04:00:37;94030.50;;;19.16;58.58
76084;BME280;64789;0.000;0.000;2023-08-21T04:03:03;94035.66;;;19.29;58.35
76084;BME280;64789;0.000;0.000;2023-08-21T04:05:28;94032.72;;;19.18;59.10
76084;BME280;64789;0.000;0.000;2023-08-21T04:07:55;94041.22;;;19.18;58.92
76084;BME280;64789;0.000;0.000;2023-08-21T04:10:20;94032.41;;;19.23;58.52
76084;BME280;64789;0.000;0.000;2023-08-21T04:12:46;94031.78;;;19.25;59.10
76084;BME280;64789;0.000;0.000;2023-08-21T04:15:11;94050.91;;;19.24;59.53
76084;BME280;64789;0.000;0.000;2023-08-21T04:17:37;94045.75;;;19.32;59.42
76084;BME280;64789;0.000;0.000;2023-08-21T04:20:02;94046.91;;;19.18;60.31
76084;BME280;64789;0.000;0.000;2023-08-21T04:22:28;94050.03;;;19.22;60.63
76084;BME280;64789;0.000;0.000;2023-08-21T04:24:53;94056.22;;;19.30;60.08
76084;BME280;64789;0.000;0.000;2023-08-21T04:27:19;94049.88;;;19.20;61.19
76084;BME280;64789;0.000;0.000;2023-08-21T04:29:44;94061.06;;;19.18;61.44
76084;BME280;64789;0.000;0.000;2023-08-21T04:32:10;94053.31;;;19.18;61.53
76084;BME280;64789;0.000;0.000;2023-08-21T04:34:36;94057.63;;;19.19;61.30
76084;BME280;64789;0.000;0.000;2023-08-21T04:37:02;94062.25;;;19.24;61.54
76084;BME280;64789;0.000;0.000;2023-08-21T04:39:27;94053.88;;;19.26;61.14
76084;BME280;64789;0.000;0.000;2023-08-21T04:41:53;94058.72;;;19.35;61.50
76084;BME280;64789;0.000;0.000;2023-08-21T04:44:19;94065.78;;;19.25;62.18
76084;BME280;64789;0.000;0.000;2023-08-21T04:46:47;94063.56;;;19.23;62.41
76084;BME280;64789;0.000;0.000;2023-08-21T04:49:13;94052.78;;;19.31;61.44
76084;BME280;64789;0.000;0.000;2023-08-21T04:51:39;94062.00;;;19.41;61.39
76084;BME280;64789;0.000;0.000;2023-08-21T04:54:05;94049.72;;;19.48;61.26
76084;BME280;64789;0.000;0.000;2023-08-21T04:56:31;94057.41;;;19.57;60.67
76084;BME280;64789;0.000;0.000;2023-08-21T04:58:56;94059.16;;;19.62;60.99
76084;BME280;64789;0.000;0.000;2023-08-21T05:01:24;94067.81;;;19.64;60.70
76084;BME280;64789;0.000;0.000;2023-08-21T05:03:51;94066.25;;;19.73;60.94
76084;BME280;64789;0.000;0.000;2023-08-21T05:06:17;94067.13;;;19.76;59.95
76084;BME280;64789;0.000;0.000;2023-08-21T05:08:44;94077.16;;;19.88;60.04
76084;BME280;64789;0.000;0.000;2023-08-21T05:11:10;94082.63;;;19.96;59.74
76084;BME280;64789;0.000;0.000;2023-08-21T05:13:37;94083.28;;;20.06;58.70
76084;BME280;64789;0.000;0.000;2023-08-21T05:16:05;94086.78;;;20.16;58.34
76084;BME280;64789;0.000;0.000;2023-08-21T05:18:35;94088.28;;;20.17;58.37
76084;BME280;64789;0.000;0.000;2023-08-21T05:21:00;94090.84;;;20.13;58.10
76084;BME280;64789;0.000;0.000;2023-08-21T05:23:26;94081.69;;;20.24;58.19
76084;BME280;64789;0.000;0.000;2023-08-21T05:25:57;94094.69;;;20.39;58.19
76084;BME280;64789;0.000;0.000;2023-08-21T05:28:23;94094.47;;;20.46;57.77
76084;BME280;64789;0.000;0.000;2023-08-21T05:30:48;94092.53;;;20.60;57.55
76084;BME280;64789;0.000;0.000;2023-08-21T05:33:15;94085.00;;;20.65;57.49
76084;BME280;64789;0.000;0.000;2023-08-21T05:35:42;94084.28;;;20.76;57.36
76084;BME280;64789;0.000;0.000;2023-08-21T05:38:09;94089.97;;;20.87;57.37
76084;BME280;64789;0.000;0.000;2023-08-21T05:40:35;94087.78;;;20.98;57.27
76084;BME280;64789;0.000;0.000;2023-08-21T05:43:01;94080.25;;;21.02;57.27
76084;BME280;64789;0.000;0.000;2023-08-21T05:45:26;94085.31;;;21.15;57.03
76084;BME280;64789;0.000;0.000;2023-08-21T05:47:52;94088.94;;;21.27;56.92
76084;BME280;64789;0.000;0.000;2023-08-21T05:50:18;94091.00;;;21.38;56.54
76084;BME280;64789;0.000;0.000;2023-08-21T05:52:43;94090.25;;;21.49;56.67
76084;BME280;64789;0.000;0.000;2023-08-21T05:55:09;94095.19;;;21.60;56.64
76084;BME280;64789;0.000;0.000;2023-08-21T05:57:37;94095.91;;;21.73;56.38
76084;BME280;64789;0.000;0.000;2023-08-21T06:00:03;94091.94;;;21.78;56.10
76084;BME280;64789;0.000;0.000;2023-08-21T06:02:40;94094.91;;;21.91;55.28
76084;BME280;64789;0.000;0.000;2023-08-21T06:05:08;94103.03;;;22.08;54.99
76084;BME280;64789;0.000;0.000;2023-08-21T06:07:33;94096.03;;;22.23;54.20
76084;BME280;64789;0.000;0.000;2023-08-21T06:09:59;94097.59;;;22.38;54.15
76084;BME280;64789;0.000;0.000;2023-08-21T06:12:24;94095.19;;;22.46;50.89
76084;BME280;64789;0.000;0.000;2023-08-21T06:14:50;94099.59;;;22.60;51.19
76084;BME280;64789;0.000;0.000;2023-08-21T06:17:16;94104.00;;;22.75;51.01
76084;BME280;64789;0.000;0.000;2023-08-21T06:19:41;94105.69;;;22.80;50.64
76084;BME280;64789;0.000;0.000;2023-08-21T06:22:07;94102.38;;;22.97;50.85
76084;BME280;64789;0.000;0.000;2023-08-21T06:24:33;94113.09;;;23.10;50.41
76084;BME280;64789;0.000;0.000;2023-08-21T06:27:01;94117.09;;;23.19;49.82
76084;BME280;64789;0.000;0.000;2023-08-21T06:29:27;94110.13;;;23.22;49.81
76084;BME280;64789;0.000;0.000;2023-08-21T06:31:53;94111.94;;;23.29;49.71
76084;BME280;64789;0.000;0.000;2023-08-21T06:34:20;94119.06;;;23.41;49.95
76084;BME280;64789;0.000;0.000;2023-08-21T06:36:46;94108.41;;;23.56;49.67
76084;BME280;64789;0.000;0.000;2023-08-21T06:39:11;94109.97;;;23.72;49.19
76084;BME280;64789;0.000;0.000;2023-08-21T06:41:37;94124.25;;;23.86;48.85
76084;BME280;64789;0.000;0.000;2023-08-21T06:44:02;94111.25;;;23.96;48.76
76084;BME280;64789;0.000;0.000;2023-08-21T06:46:28;94119.19;;;24.11;48.56
76084;BME280;64789;0.000;0.000;2023-08-21T06:48:54;94121.19;;;24.23;48.15
76084;BME280;64789;0.000;0.000;2023-08-21T06:51:19;94125.47;;;24.37;48.40
76084;BME280;64789;0.000;0.000;2023-08-21T06:53:45;94120.28;;;24.47;47.15
76084;BME280;64789;0.000;0.000;2023-08-21T06:56:10;94120.03;;;24.57;47.14
76084;BME280;64789;0.000;0.000;2023-08-21T06:58:36;94115.09;;;24.73;47.45
76084;BME280;64789;0.000;0.000;2023-08-21T07:01:01;94123.66;;;24.87;46.81
76084;BME280;64789;0.000;0.000;2023-08-21T07:03:27;94116.94;;;24.96;46.55
76084;BME280;64789;0.000;0.000;2023-08-21T07:05:56;94115.94;;;25.05;45.92
76084;BME280;64789;0.000;0.000;2023-08-21T07:08:22;94117.97;;;25.18;45.71
76084;BME280;64789;0.000;0.000;2023-08-21T07:10:48;94118.72;;;25.34;45.91
76084;BME280;64789;0.000;0.000;2023-08-21T07:13:16;94120.47;;;25.41;44.75
76084;BME280;64789;0.000;0.000;2023-08-21T07:15:41;94120.34;;;25.53;45.34
76084;BME280;64789;0.000;0.000;2023-08-21T07:18:07;94111.09;;;25.54;45.52
76084;BME280;64789;0.000;0.000;2023-08-21T07:20:33;94119.50;;;25.66;45.20
76084;BME280;64789;0.000;0.000;2023-08-21T07:22:59;94113.75;;;25.81;44.80
76084;BME280;64789;0.000;0.000;2023-08-21T07:25:24;94131.84;;;26.01;44.84
76084;BME280;64789;0.000;0.000;2023-08-21T07:27:51;94114.06;;;26.21;44.63
76084;BME280;64789;0.000;0.000;2023-08-21T07:30:18;94117.69;;;26.21;44.12
76084;BME280;64789;0.000;0.000;2023-08-21T07:32:45;94126.19;;;26.37;43.67
76084;BME280;64789;0.000;0.000;2023-08-21T07:35:11;94124.50;;;26.47;43.33
76084;BME280;64789;0.000;0.000;2023-08-21T07:37:36;94126.50;;;26.60;43.81
76084;BME280;64789;0.000;0.000;2023-08-21T07:40:02;94113.38;;;26.73;43.64
76084;BME280;64789;0.000;0.000;2023-08-21T07:42:27;94118.09;;;26.82;43.31
76084;BME280;64789;0.000;0.000;2023-08-21T07:44:53;94122.69;;;26.89;42.17
76084;BME280;64789;0.000;0.000;2023-08-21T07:47:18;94119.28;;;27.12;41.68
76084;BME280;64789;0.000;0.000;2023-08-21T07:49:44;94116.13;;;27.04;41.84
76084;BME280;64789;0.000;0.000;2023-08-21T07:52:10;94117.59;;;27.05;41.40
76084;BME280;64789;0.000;0.000;2023-08-21T07:54:35;94120.22;;;27.36;41.61
76084;BME280;64789;0.000;0.000;2023-08-21T07:57:01;94120.81;;;27.51;40.69
76084;BME280;64789;0.000;0.000;2023-08-21T07:59:27;94114.88;;;27.64;40.87
76084;BME280;64789;0.000;0.000;2023-08-21T08:01:53;94115.38;;;27.78;40.20
76084;BME280;64789;0.000;0.000;2023-08-21T08:04:18;94114.75;;;27.80;39.54
76084;BME280;64789;0.000;0.000;2023-08-21T08:06:45;94117.31;;;27.91;39.31
76084;BME280;64789;0.000;0.000;2023-08-21T08:09:10;94112.78;;;28.04;38.33
76084;BME280;64789;0.000;0.000;2023-08-21T08:11:36;94112.53;;;28.18;37.64
76084;BME280;64789;0.000;0.000;2023-08-21T08:14:01;94113.56;;;28.26;38.98
76084;BME280;64789;0.000;0.000;2023-08-21T08:16:27;94117.03;;;28.44;39.05
76084;BME280;64789;0.000;0.000;2023-08-21T08:18:53;94118.25;;;28.59;38.66
76084;BME280;64789;0.000;0.000;2023-08-21T08:21:18;94110.63;;;28.66;38.06
76084;BME280;64789;0.000;0.000;2023-08-21T08:23:44;94113.91;;;28.78;37.09
76084;BME280;64789;0.000;0.000;2023-08-21T08:26:10;94116.63;;;28.74;36.99
76084;BME280;64789;0.000;0.000;2023-08-21T08:28:36;94110.94;;;28.97;37.35
76084;BME280;64789;0.000;0.000;2023-08-21T08:31:01;94109.34;;;28.92;35.69
76084;BME280;64789;0.000;0.000;2023-08-21T08:33:27;94107.00;;;28.87;35.63
76084;BME280;64789;0.000;0.000;2023-08-21T08:35:52;94100.97;;;28.79;36.11
76084;BME280;64789;0.000;0.000;2023-08-21T08:38:18;94096.97;;;28.88;36.52
76084;BME280;64789;0.000;0.000;2023-08-21T08:40:45;94097.13;;;29.15;36.14
76084;BME280;64789;0.000;0.000;2023-08-21T08:43:11;94091.25;;;29.11;35.30
76084;BME280;64789;0.000;0.000;2023-08-21T08:45:37;94096.38;;;29.15;35.74
76084;BME280;64789;0.000;0.000;2023-08-21T08:48:04;94087.91;;;29.43;35.89
76084;BME280;64789;0.000;0.000;2023-08-21T08:50:30;94081.97;;;29.60;34.87
76084;BME280;64789;0.000;0.000;2023-08-21T08:52:57;94090.78;;;29.43;34.35
76084;BME280;64789;0.000;0.000;2023-08-21T08:55:23;94082.75;;;29.63;34.67
76084;BME280;64789;0.000;0.000;2023-08-21T08:57:49;94080.94;;;29.99;33.41
76084;BME280;64789;0.000;0.000;2023-08-21T09:00:14;94081.44;;;29.91;33.87
76084;BME280;64789;0.000;0.000;2023-08-21T09:02:40;94073.09;;;30.02;32.37
76084;BME280;64789;0.000;0.000;2023-08-21T09:05:06;94087.94;;;30.18;33.36
76084;BME280;64789;0.000;0.000;2023-08-21T09:07:33;94088.91;;;30.26;32.58
76084;BME280;64789;0.000;0.000;2023-08-21T09:09:59;94086.31;;;30.36;33.07
76084;BME280;64789;0.000;0.000;2023-08-21T09:12:25;94084.63;;;30.55;32.53
76084;BME280;64789;0.000;0.000;2023-08-21T09:14:51;94082.22;;;30.45;32.19
76084;BME280;64789;0.000;0.000;2023-08-21T09:17:17;94081.00;;;30.54;32.77
76084;BME280;64789;0.000;0.000;2023-08-21T09:19:43;94086.47;;;30.70;31.45
76084;BME280;64789;0.000;0.000;2023-08-21T09:22:13;94076.28;;;30.67;31.34
76084;BME280;64789;0.000;0.000;2023-08-21T09:24:40;94078.28;;;30.88;31.61
76084;BME280;64789;0.000;0.000;2023-08-21T09:27:15;94064.50;;;30.87;30.34
76084;BME280;64789;0.000;0.000;2023-08-21T09:29:42;94073.00;;;31.08;29.93
76084;BME280;64789;0.000;0.000;2023-08-21T09:32:07;94064.50;;;31.14;30.21
76084;BME280;64789;0.000;0.000;2023-08-21T09:34:36;94071.94;;;31.26;30.56
76084;BME280;64789;0.000;0.000;2023-08-21T09:37:05;94066.50;;;31.40;30.58
76084;BME280;64789;0.000;0.000;2023-08-21T09:39:35;94064.47;;;31.44;29.90
76084;BME280;64789;0.000;0.000;2023-08-21T09:42:04;94068.84;;;31.47;29.91
76084;BME280;64789;0.000;0.000;2023-08-21T09:44:34;94071.28;;;31.59;29.93
76084;BME280;64789;0.000;0.000;2023-08-21T09:47:00;94067.66;;;31.58;30.04
76084;BME280;64789;0.000;0.000;2023-08-21T09:49:26;94057.88;;;31.73;30.62
76084;BME280;64789;0.000;0.000;2023-08-21T09:51:51;94064.53;;;31.82;29.61
76084;BME280;64789;0.000;0.000;2023-08-21T09:54:18;94057.31;;;31.81;29.21
76084;BME280;64789;0.000;0.000;2023-08-21T09:56:43;94061.81;;;31.90;29.44
76084;BME280;64789;0.000;0.000;2023-08-21T09:59:11;94055.59;;;32.04;29.30
76084;BME280;64789;0.000;0.000;2023-08-21T10:01:37;94054.84;;;32.01;29.85
76084;BME280;64789;0.000;0.000;2023-08-21T10:04:04;94049.25;;;32.11;30.03
76084;BME280;64789;0.000;0.000;2023-08-21T10:06:31;94046.31;;;32.09;28.68
76084;BME280;64789;0.000;0.000;2023-08-21T10:08:56;94047.09;;;32.12;28.95
76084;BME280;64789;0.000;0.000;2023-08-21T10:11:23;94040.47;;;32.05;27.77
76084;BME280;64789;0.000;0.000;2023-08-21T10:13:48;94044.38;;;32.20;29.20
76084;BME280;64789;0.000;0.000;2023-08-21T10:16:16;94041.09;;;32.37;28.48
76084;BME280;64789;0.000;0.000;2023-08-21T10:18:44;94038.59;;;32.60;28.34
76084;BME280;64789;0.000;0.000;2023-08-21T10:23:39;94026.78;;;32.47;28.67
76084;BME280;64789;0.000;0.000;2023-08-21T10:26:06;94025.03;;;32.70;28.36
76084;BME280;64789;0.000;0.000;2023-08-21T10:28:48;94012.63;;;32.64;28.81
76084;BME280;64789;0.000;0.000;2023-08-21T10:34:00;94016.81;;;31.79;28.85
76084;BME280;64789;0.000;0.000;2023-08-21T10:39:16;94006.44;;;32.41;27.43
76084;BME280;64789;0.000;0.000;2023-08-21T10:42:15;94003.94;;;32.64;25.78
76084;BME280;64789;0.000;0.000;2023-08-21T10:47:14;94004.09;;;32.72;27.86
76084;BME280;64789;0.000;0.000;2023-08-21T10:49:56;93998.78;;;32.18;27.60
76084;BME280;64789;0.000;0.000;2023-08-21T10:54:57;93999.19;;;32.01;28.25
76084;BME280;64789;0.000;0.000;2023-08-21T10:57:24;94008.34;;;32.27;28.22
76084;BME280;64789;0.000;0.000;2023-08-21T10:59:54;94005.19;;;32.53;27.26
76084;BME280;64789;0.000;0.000;2023-08-21T11:02:20;93992.44;;;32.70;27.37
76084;BME280;64789;0.000;0.000;2023-08-21T11:04:46;93996.06;;;32.70;25.75
76084;BME280;64789;0.000;0.000;2023-08-21T11:07:11;94001.38;;;32.84;26.43
76084;BME280;64789;0.000;0.000;2023-08-21T11:09:38;93987.84;;;32.98;26.10
76084;BME280;64789;0.000;0.000;2023-08-21T11:12:08;93997.41;;;33.07;26.30
76084;BME280;64789;0.000;0.000;2023-08-21T11:14:34;93984.41;;;33.10;25.51
76084;BME280;64789;0.000;0.000;2023-08-21T11:17:00;93996.06;;;33.16;25.38
76084;BME280;64789;0.000;0.000;2023-08-21T11:19:26;93983.94;;;33.28;24.93
76084;BME280;64789;0.000;0.000;2023-08-21T11:21:52;93985.53;;;33.39;25.50
76084;BME280;64789;0.000;0.000;2023-08-21T11:24:17;93981.94;;;33.40;24.51
76084;BME280;64789;0.000;0.000;2023-08-21T11:26:43;93987.50;;;33.24;25.46
76084;BME280;64789;0.000;0.000;2023-08-21T11:29:09;93981.13;;;33.34;24.98
76084;BME280;64789;0.000;0.000;2023-08-21T11:31:34;93978.28;;;33.38;25.41
76084;BME280;64789;0.000;0.000;2023-08-21T11:34:00;93964.59;;;33.44;24.62
76084;BME280;64789;0.000;0.000;2023-08-21T11:36:25;93976.91;;;33.43;24.19
76084;BME280;64789;0.000;0.000;2023-08-21T11:38:58;93967.66;;;33.54;25.26
76084;BME280;64789;0.000;0.000;2023-08-21T11:41:25;93970.75;;;33.70;25.05
76084;BME280;64789;0.000;0.000;2023-08-21T11:43:51;93970.06;;;33.72;24.59
76084;BME280;64789;0.000;0.000;2023-08-21T11:46:17;93964.97;;;33.72;24.48
76084;BME280;64789;0.000;0.000;2023-08-21T11:48:44;93965.66;;;33.69;24.35
76084;BME280;64789;0.000;0.000;2023-08-21T11:51:10;93954.84;;;33.76;24.85
76084;BME280;64789;0.000;0.000;2023-08-21T11:56:02;93952.63;;;33.16;25.02
76084;BME280;64789;0.000;0.000;2023-08-21T11:58:28;93961.47;;;32.78;25.67
76084;BME280;64789;0.000;0.000;2023-08-21T12:00:54;93962.03;;;32.67;26.06
76084;BME280;64789;0.000;0.000;2023-08-21T12:03:20;93953.97;;;33.07;25.11
76084;BME280;64789;0.000;0.000;2023-08-21T12:05:46;93962.19;;;33.27;25.90
76084;BME280;64789;0.000;0.000;2023-08-21T12:08:11;93956.66;;;33.45;25.53
76084;BME280;64789;0.000;0.000;2023-08-21T12:10:37;93953.19;;;33.56;25.02
76084;BME280;64789;0.000;0.000;2023-08-21T12:13:03;93945.25;;;33.59;25.36
76084;BME280;64789;0.000;0.000;2023-08-21T12:15:29;93946.94;;;33.80;24.93
76084;BME280;64789;0.000;0.000;2023-08-21T12:17:54;93947.75;;;33.87;24.90
76084;BME280;64789;0.000;0.000;2023-08-21T12:20:20;93943.38;;;33.86;24.58
76084;BME280;64789;0.000;0.000;2023-08-21T12:22:46;93947.56;;;33.70;24.23
76084;BME280;64789;0.000;0.000;2023-08-21T12:25:12;93944.69;;;33.19;24.37
76084;BME280;64789;0.000;0.000;2023-08-21T12:27:38;93932.94;;;33.06;24.80
76084;BME280;64789;0.000;0.000;2023-08-21T12:30:05;93932.91;;;33.02;24.83
76084;BME280;64789;0.000;0.000;2023-08-21T12:32:30;93942.56;;;33.21;25.74
76084;BME280;64789;0.000;0.000;2023-08-21T12:34:56;93938.53;;;33.44;24.82
76084;BME280;64789;0.000;0.000;2023-08-21T12:37:22;93932.97;;;33.62;24.75
76084;BME280;64789;0.000;0.000;2023-08-21T12:39:47;93943.69;;;33.52;25.38
76084;BME280;64789;0.000;0.000;2023-08-21T12:42:14;93945.84;;;33.49;25.57
76084;BME280;64789;0.000;0.000;2023-08-21T12:44:39;93930.34;;;33.29;24.76
76084;BME280;64789;0.000;0.000;2023-08-21T12:47:05;93935.81;;;33.04;25.97
76084;BME280;64789;0.000;0.000;2023-08-21T12:49:31;93932.53;;;33.28;24.98
76084;BME280;64789;0.000;0.000;2023-08-21T12:51:57;93934.06;;;33.35;24.06
76084;BME280;64789;0.000;0.000;2023-08-21T12:54:22;93921.63;;;33.27;23.42
76084;BME280;64789;0.000;0.000;2023-08-21T12:56:48;93913.75;;;33.33;24.19
76084;BME280;64789;0.000;0.000;2023-08-21T12:59:14;93915.53;;;33.58;25.25
76084;BME280;64789;0.000;0.000;2023-08-21T13:01:39;93915.66;;;33.70;24.44
76084;BME280;64789;0.000;0.000;2023-08-21T13:04:05;93912.91;;;33.85;24.01
76084;BME280;64789;0.000;0.000;2023-08-21T13:06:31;93915.00;;;33.74;25.26
76084;BME280;64789;0.000;0.000;2023-08-21T13:08:57;93912.84;;;33.77;24.65
76084;BME280;64789;0.000;0.000;2023-08-21T13:11:22;93911.47;;;33.84;23.87
76084;BME280;64789;0.000;0.000;2023-08-21T13:13:48;93913.25;;;33.53;24.39
76084;BME280;64789;0.000;0.000;2023-08-21T13:16:14;93898.94;;;33.65;23.86
76084;BME280;64789;0.000;0.000;2023-08-21T13:18:40;93905.66;;;33.84;24.10
76084;BME280;64789;0.000;0.000;2023-08-21T13:21:05;93896.22;;;33.83;24.84
76084;BME280;64789;0.000;0.000;2023-08-21T13:23:31;93903.56;;;33.90;24.79
76084;BME280;64789;0.000;0.000;2023-08-21T13:25:59;93907.94;;;33.95;23.74